createdAt,value
2022-08-26T00:01:56.976Z,7.88
2022-08-26T00:04:25.731Z,9.23
2022-08-26T00:06:54.989Z,8.18
2022-08-26T00:09:24.784Z,7.90
2022-08-26T00:11:54.041Z,8.07
2022-08-26T00:14:21.844Z,9.27
2022-08-26T00:16:49.145Z,8.10
2022-08-26T00:19:18.592Z,7.38
2022-08-26T00:21:48.686Z,7.93
2022-08-26T00:24:19.320Z,7.90
2022-08-26T00:26:46.556Z,7.95
2022-08-26T00:29:13.780Z,8.18
2022-08-26T00:31:42.282Z,7.65
2022-08-26T00:34:11.137Z,8.20
2022-08-26T00:36:39.808Z,8.57
2022-08-26T00:39:09.053Z,8.05
2022-08-26T00:41:39.263Z,7.80
2022-08-26T00:44:07.332Z,7.80
2022-08-26T00:46:39.836Z,7.68
2022-08-26T00:49:25.949Z,8.02
2022-08-26T00:51:55.437Z,7.35
2022-08-26T00:54:27.033Z,8.02
2022-08-26T00:57:15.949Z,6.88
2022-08-26T00:59:47.778Z,8.48
2022-08-26T01:02:20.054Z,8.88
2022-08-26T01:04:58.035Z,7.50
2022-08-26T01:07:31.180Z,8.52
2022-08-26T01:10:01.206Z,7.78
2022-08-26T01:12:31.880Z,7.57
2022-08-26T01:14:59.586Z,8.32
2022-08-26T01:17:26.666Z,8.27
2022-08-26T01:20:04.039Z,7.65
2022-08-26T01:22:42.132Z,7.85
2022-08-26T01:25:11.306Z,8.15
2022-08-26T01:27:38.841Z,8.02
2022-08-26T01:30:06.710Z,6.63
2022-08-26T01:32:34.510Z,7.70
2022-08-26T01:35:02.462Z,7.50
2022-08-26T01:37:34.485Z,7.93
2022-08-26T01:40:01.616Z,7.65
2022-08-26T01:42:28.908Z,8.20
2022-08-26T01:45:00.996Z,7.88
2022-08-26T01:47:30.997Z,7.75
2022-08-26T01:50:03.008Z,6.97
2022-08-26T01:52:33.333Z,8.27
2022-08-26T01:55:01.403Z,7.10
2022-08-26T01:57:29.367Z,8.20
2022-08-26T01:59:59.537Z,7.13
2022-08-26T02:02:27.251Z,8.02
2022-08-26T02:04:58.677Z,7.03
2022-08-26T02:07:27.108Z,7.35
2022-08-26T02:09:55.591Z,7.70
2022-08-26T02:12:23.001Z,7.35
2022-08-26T02:14:53.826Z,8.85
2022-08-26T02:17:26.235Z,8.03
2022-08-26T02:19:53.888Z,7.22
2022-08-26T02:22:24.680Z,9.50
2022-08-26T02:25:01.304Z,6.72
2022-08-26T02:27:32.893Z,7.28
2022-08-26T02:30:21.412Z,7.32
2022-08-26T02:32:49.607Z,7.63
2022-08-26T02:35:20.064Z,7.47
2022-08-26T02:37:49.498Z,7.80
2022-08-26T02:40:21.794Z,8.00
2022-08-26T02:42:49.696Z,7.93
2022-08-26T02:45:23.354Z,9.55
2022-08-26T02:47:52.373Z,9.73
2022-08-26T02:50:20.224Z,8.10
2022-08-26T02:52:48.511Z,7.75
2022-08-26T02:55:16.215Z,8.60
2022-08-26T02:57:43.633Z,7.47
2022-08-26T03:00:14.884Z,8.25
2022-08-26T03:02:42.181Z,7.68
2022-08-26T03:05:09.958Z,8.00
2022-08-26T03:07:37.153Z,8.70
2022-08-26T03:10:08.370Z,7.72
2022-08-26T03:12:37.166Z,7.93
2022-08-26T03:15:15.618Z,7.30
2022-08-26T03:17:48.365Z,9.80
2022-08-26T03:20:17.512Z,9.75
2022-08-26T03:22:45.487Z,9.35
2022-08-26T03:25:14.766Z,7.20
2022-08-26T03:27:43.024Z,7.88
2022-08-26T03:30:30.496Z,7.85
2022-08-26T03:32:57.740Z,8.20
2022-08-26T03:35:25.894Z,7.88
2022-08-26T03:37:53.835Z,8.23
2022-08-26T03:40:21.647Z,8.25
2022-08-26T03:42:50.462Z,7.50
2022-08-26T03:45:19.565Z,7.55
2022-08-26T03:47:48.029Z,7.60
2022-08-26T03:50:22.603Z,7.07
2022-08-26T03:52:52.148Z,7.95
2022-08-26T03:55:20.539Z,8.10
2022-08-26T04:00:18.780Z,7.97
2022-08-26T04:02:48.902Z,9.60
2022-08-26T04:05:18.383Z,9.52
2022-08-26T04:07:46.506Z,9.40
2022-08-26T04:10:20.155Z,9.43
2022-08-26T04:12:47.762Z,8.35
2022-08-26T04:15:17.790Z,9.07
2022-08-26T04:17:45.044Z,8.55
2022-08-26T04:20:14.049Z,8.25
2022-08-26T04:22:43.539Z,8.48
2022-08-26T04:25:11.523Z,8.60
2022-08-26T04:27:39.231Z,8.27
2022-08-26T04:30:09.119Z,8.13
2022-08-26T04:32:37.409Z,8.32
2022-08-26T04:35:05.623Z,8.30
2022-08-26T04:37:33.687Z,8.23
2022-08-26T04:40:00.915Z,8.23
2022-08-26T04:42:29.487Z,7.20
2022-08-26T04:44:56.542Z,7.93
2022-08-26T04:47:23.592Z,7.28
2022-08-26T04:49:54.585Z,7.63
2022-08-26T04:52:21.666Z,7.57
2022-08-26T04:54:50.127Z,8.68
2022-08-26T04:57:17.121Z,9.57
2022-08-26T04:59:44.262Z,7.43
2022-08-26T05:02:12.001Z,9.68
2022-08-26T05:04:38.983Z,8.35
2022-08-26T05:07:06.336Z,8.55
2022-08-26T05:09:33.493Z,8.57
2022-08-26T05:12:00.455Z,8.50
2022-08-26T05:14:27.609Z,8.07
2022-08-26T05:16:54.776Z,9.20
2022-08-26T05:19:21.931Z,9.07
2022-08-26T05:21:49.372Z,9.15
2022-08-26T05:24:18.037Z,8.15
2022-08-26T05:26:47.291Z,6.85
2022-08-26T05:29:15.751Z,9.82
2022-08-26T05:31:43.982Z,8.68
2022-08-26T05:34:11.066Z,8.05
2022-08-26T05:36:38.925Z,8.18
2022-08-26T05:39:07.209Z,8.55
2022-08-26T05:41:38.477Z,7.60
2022-08-26T05:44:08.907Z,6.57
2022-08-26T05:46:37.287Z,7.13
2022-08-26T05:49:05.912Z,6.95
2022-08-26T05:51:33.531Z,6.40
2022-08-26T05:54:03.557Z,6.43
2022-08-26T05:56:30.752Z,7.63
2022-08-26T05:58:58.552Z,9.55
2022-08-26T06:01:28.747Z,8.20
2022-08-26T06:03:59.766Z,11.00
2022-08-26T06:06:35.157Z,10.45
2022-08-26T06:09:05.273Z,8.02
2022-08-26T06:11:33.408Z,9.25
2022-08-26T06:14:04.358Z,10.98
2022-08-26T06:16:34.812Z,9.77
2022-08-26T06:19:03.589Z,10.68
2022-08-26T06:21:40.545Z,9.43
2022-08-26T06:24:30.165Z,10.38
2022-08-26T06:27:01.270Z,10.02
2022-08-26T06:29:30.541Z,9.70
2022-08-26T06:31:58.162Z,9.65
2022-08-26T06:34:30.245Z,9.50
2022-08-26T06:37:01.156Z,10.15
2022-08-26T06:39:30.777Z,10.52
2022-08-26T06:41:59.597Z,9.32
2022-08-26T06:44:27.313Z,8.00
2022-08-26T06:46:54.766Z,9.95
2022-08-26T06:49:27.470Z,9.50
2022-08-26T06:52:00.287Z,10.80
2022-08-26T06:54:30.360Z,9.00
2022-08-26T06:56:57.689Z,8.98
2022-08-26T06:59:24.715Z,9.75
2022-08-26T07:01:52.444Z,9.40
2022-08-26T07:04:23.348Z,8.75
2022-08-26T07:06:53.505Z,9.98
2022-08-26T07:09:26.044Z,9.40
2022-08-26T07:11:54.139Z,9.48
2022-08-26T07:14:21.876Z,8.60
2022-08-26T07:16:50.536Z,9.13
2022-08-26T07:19:27.579Z,9.00
2022-08-26T07:22:02.185Z,8.23
2022-08-26T07:24:31.225Z,9.70
2022-08-26T07:27:03.882Z,8.70
2022-08-26T07:29:33.343Z,9.25
2022-08-26T07:32:01.748Z,9.02
2022-08-26T07:34:28.902Z,8.60
2022-08-26T07:36:57.063Z,8.52
2022-08-26T07:39:25.033Z,9.60
2022-08-26T07:41:52.915Z,8.75
2022-08-26T07:44:19.941Z,9.18
2022-08-26T07:46:52.231Z,9.10
2022-08-26T07:49:21.705Z,8.95
2022-08-26T07:51:49.895Z,7.93
2022-08-26T07:54:17.039Z,9.57
2022-08-26T07:56:44.745Z,9.30
2022-08-26T07:59:13.593Z,8.70
2022-08-26T08:01:41.453Z,8.48
2022-08-26T08:04:17.836Z,8.32
2022-08-26T08:06:46.495Z,7.95
2022-08-26T08:09:16.054Z,6.97
2022-08-26T08:11:44.885Z,7.40
2022-08-26T08:14:13.190Z,6.90
2022-08-26T08:16:45.775Z,8.05
2022-08-26T08:19:14.768Z,7.43
2022-08-26T08:21:43.305Z,7.38
2022-08-26T08:24:11.727Z,6.35
2022-08-26T08:26:39.352Z,8.85
2022-08-26T08:29:08.456Z,7.43
2022-08-26T08:31:56.620Z,7.38
2022-08-26T08:34:24.880Z,7.50
2022-08-26T08:36:54.206Z,6.20
2022-08-26T08:39:22.342Z,6.57
2022-08-26T08:42:07.767Z,6.10
2022-08-26T08:44:39.586Z,6.25
2022-08-26T08:48:01.142Z,5.38
2022-08-26T08:50:33.840Z,5.65
2022-08-26T08:53:37.792Z,5.78
2022-08-26T08:56:26.667Z,5.60
2022-08-26T08:59:17.669Z,5.45
2022-08-26T09:02:06.483Z,5.90
2022-08-26T09:04:45.546Z,5.80
2022-08-26T09:07:18.687Z,5.95
2022-08-26T09:09:57.287Z,5.35
2022-08-26T09:12:30.090Z,5.53
2022-08-26T09:15:16.583Z,5.05
2022-08-26T09:18:11.159Z,5.88
2022-08-26T09:20:58.219Z,5.35
2022-08-26T09:23:26.295Z,5.13
2022-08-26T09:25:57.223Z,5.30
2022-08-26T09:28:27.200Z,5.22
2022-08-26T09:31:20.444Z,4.57
2022-08-26T09:33:48.752Z,4.80
2022-08-26T09:36:39.058Z,4.82
2022-08-26T09:39:27.905Z,5.97
2022-08-26T09:42:20.828Z,5.55
2022-08-26T09:45:01.142Z,5.68
2022-08-26T09:47:54.583Z,5.22
2022-08-26T09:50:29.350Z,4.97
2022-08-26T09:53:13.204Z,5.88
2022-08-26T09:55:43.453Z,5.28
2022-08-26T09:58:16.739Z,5.40
2022-08-26T10:00:57.393Z,5.82
2022-08-26T10:03:31.727Z,5.10
2022-08-26T10:06:00.252Z,5.57
2022-08-26T10:08:34.445Z,5.28
2022-08-26T10:11:05.769Z,5.60
2022-08-26T10:13:44.548Z,5.25
2022-08-26T10:16:20.482Z,5.30
2022-08-26T10:18:59.896Z,5.50
2022-08-26T10:21:35.593Z,5.28
2022-08-26T10:24:04.563Z,5.20
2022-08-26T10:26:50.931Z,5.45
2022-08-26T10:29:35.868Z,5.30
2022-08-26T10:32:13.906Z,5.00
2022-08-26T10:34:41.913Z,4.90
2022-08-26T10:37:18.058Z,5.05
2022-08-26T10:40:02.659Z,5.28
2022-08-26T10:42:54.516Z,4.97
2022-08-26T10:45:32.369Z,5.05
2022-08-26T10:48:09.018Z,4.70
2022-08-26T10:50:39.234Z,5.30
2022-08-26T10:53:44.675Z,4.82
2022-08-26T10:56:44.030Z,5.05
2022-08-26T10:59:31.196Z,4.90
2022-08-26T11:02:03.926Z,4.50
2022-08-26T11:04:58.363Z,4.82
2022-08-26T11:07:52.620Z,4.47
2022-08-26T11:10:22.636Z,4.55
2022-08-26T11:13:03.847Z,5.15
2022-08-26T11:15:31.426Z,4.82
2022-08-26T11:18:04.345Z,4.32
2022-08-26T11:20:57.797Z,4.53
2022-08-26T11:23:26.789Z,4.63
2022-08-26T11:25:57.323Z,4.70
2022-08-26T11:28:45.110Z,3.65
2022-08-26T11:31:37.913Z,4.03
2022-08-26T11:34:10.758Z,4.05
2022-08-26T11:36:54.413Z,3.65
2022-08-26T11:39:36.532Z,3.50
2022-08-26T11:42:35.611Z,3.42
2022-08-26T11:45:14.303Z,3.88
2022-08-26T11:47:42.084Z,3.75
2022-08-26T11:50:21.173Z,3.90
2022-08-26T11:52:53.592Z,4.22
2022-08-26T11:55:23.273Z,4.38
2022-08-26T11:57:57.849Z,3.63
2022-08-26T12:00:33.271Z,3.38
2022-08-26T12:03:06.376Z,3.70
2022-08-26T12:05:43.264Z,3.97
2022-08-26T12:08:16.366Z,3.92
2022-08-26T12:10:43.874Z,3.92
2022-08-26T12:13:25.027Z,3.58
2022-08-26T12:15:57.212Z,3.95
2022-08-26T12:18:34.340Z,4.22
2022-08-26T12:21:12.773Z,4.28
2022-08-26T12:23:44.048Z,3.90
2022-08-26T12:28:53.130Z,3.30
2022-08-26T12:31:30.398Z,4.15
2022-08-26T12:34:00.565Z,4.00
2022-08-26T12:36:36.306Z,4.13
2022-08-26T12:39:16.331Z,3.70
2022-08-26T12:41:56.187Z,3.85
2022-08-26T12:44:53.978Z,3.97
2022-08-26T12:47:41.823Z,3.95
2022-08-26T12:50:19.275Z,3.63
2022-08-26T12:53:13.370Z,3.97
2022-08-26T12:55:43.886Z,4.28
2022-08-26T12:58:16.758Z,4.47
2022-08-26T13:01:04.246Z,3.90
2022-08-26T13:03:34.514Z,3.75
2022-08-26T13:06:22.845Z,3.80
2022-08-26T13:08:59.343Z,3.90
2022-08-26T13:11:45.095Z,3.60
2022-08-26T13:14:15.525Z,3.95
2022-08-26T13:16:52.328Z,4.25
2022-08-26T13:19:22.428Z,3.50
2022-08-26T13:22:00.434Z,3.75
2022-08-26T13:24:38.159Z,3.75
2022-08-26T13:27:06.797Z,3.70
2022-08-26T13:29:34.337Z,3.60
2022-08-26T13:32:02.018Z,3.55
2022-08-26T13:34:30.862Z,3.70
2022-08-26T13:36:58.561Z,4.03
2022-08-26T13:39:26.111Z,3.92
2022-08-26T13:41:53.242Z,4.00
2022-08-26T13:44:21.611Z,3.90
2022-08-26T13:46:48.971Z,3.50
2022-08-26T13:49:16.121Z,2.90
2022-08-26T13:51:43.233Z,3.55
2022-08-26T13:54:10.365Z,3.83
2022-08-26T13:56:37.660Z,3.60
2022-08-26T13:59:05.650Z,3.97
2022-08-26T14:01:34.769Z,3.50
2022-08-26T14:04:03.176Z,3.80
2022-08-26T14:06:30.833Z,3.90
2022-08-26T14:08:59.107Z,3.53
2022-08-26T14:11:28.465Z,3.50
2022-08-26T14:13:55.665Z,3.83
2022-08-26T14:16:31.642Z,3.28
2022-08-26T14:19:01.376Z,3.88
2022-08-26T14:21:34.321Z,3.50
2022-08-26T14:24:01.459Z,3.40
2022-08-26T14:26:29.752Z,4.00
2022-08-26T14:28:59.111Z,4.15
2022-08-26T14:31:29.363Z,3.50
2022-08-26T14:34:04.539Z,3.60
2022-08-26T14:36:32.635Z,4.00
2022-08-26T14:39:07.213Z,3.90
2022-08-26T14:41:38.247Z,3.88
2022-08-26T14:44:10.807Z,3.80
2022-08-26T14:47:01.193Z,3.33
2022-08-26T14:49:28.545Z,3.75
2022-08-26T14:51:55.751Z,4.00
2022-08-26T14:54:23.151Z,3.67
2022-08-26T14:56:56.803Z,3.55
2022-08-26T14:59:29.888Z,4.07
2022-08-26T15:01:57.952Z,4.05
2022-08-26T15:04:25.401Z,3.60
2022-08-26T15:06:57.257Z,3.60
2022-08-26T15:09:24.739Z,4.00
2022-08-26T15:11:53.260Z,3.90
2022-08-26T15:14:21.775Z,3.90
2022-08-26T15:16:50.996Z,4.43
2022-08-26T15:19:19.047Z,4.22
2022-08-26T15:21:47.424Z,3.47
2022-08-26T15:24:17.345Z,3.40
2022-08-26T15:26:45.190Z,3.80
2022-08-26T15:29:12.566Z,4.00
2022-08-26T15:31:39.666Z,3.50
2022-08-26T15:34:12.105Z,3.83
2022-08-26T15:36:44.923Z,3.40
2022-08-26T15:39:13.110Z,4.07
2022-08-26T15:41:40.317Z,3.38
2022-08-26T15:44:08.304Z,3.28
2022-08-26T15:46:37.441Z,3.47
2022-08-26T15:49:06.255Z,3.78
2022-08-26T15:51:45.631Z,3.20
2022-08-26T15:54:16.134Z,3.38
2022-08-26T15:56:43.826Z,4.13
2022-08-26T15:59:12.556Z,3.55
2022-08-26T16:01:40.585Z,3.60
2022-08-26T16:04:08.318Z,3.42
2022-08-26T16:06:39.277Z,3.42
2022-08-26T16:09:08.407Z,3.75
2022-08-26T16:11:37.808Z,3.45
2022-08-26T16:14:06.000Z,3.22
2022-08-26T16:16:33.530Z,4.65
2022-08-26T16:19:05.561Z,3.50
2022-08-26T16:21:35.362Z,3.30
2022-08-26T16:24:03.393Z,3.75
2022-08-26T16:26:33.161Z,3.50
2022-08-26T16:29:09.951Z,4.40
2022-08-26T16:31:38.298Z,3.85
2022-08-26T16:34:07.096Z,3.50
2022-08-26T16:36:34.824Z,3.30
2022-08-26T16:39:02.647Z,3.67
2022-08-26T16:41:31.129Z,3.72
2022-08-26T16:43:58.679Z,3.58
2022-08-26T16:46:26.628Z,3.83
2022-08-26T16:48:58.564Z,3.97
2022-08-26T16:51:27.383Z,3.95
2022-08-26T16:53:56.347Z,4.00
2022-08-26T16:56:33.686Z,4.03
2022-08-26T16:59:04.212Z,3.58
2022-08-26T17:01:31.485Z,3.70
2022-08-26T17:03:58.672Z,4.47
2022-08-26T17:06:25.751Z,3.58
2022-08-26T17:08:53.162Z,4.30
2022-08-26T17:11:20.314Z,4.18
2022-08-26T17:13:47.376Z,3.92
2022-08-26T17:16:15.433Z,3.90
2022-08-26T17:18:42.631Z,3.75
2022-08-26T17:21:35.614Z,4.10
2022-08-26T17:24:04.971Z,3.70
2022-08-26T17:26:33.240Z,3.75
2022-08-26T17:29:00.458Z,3.88
2022-08-26T17:31:27.453Z,3.97
2022-08-26T17:33:55.548Z,3.58
2022-08-26T17:36:27.646Z,3.88
2022-08-26T17:38:55.992Z,3.47
2022-08-26T17:41:23.092Z,3.92
2022-08-26T17:43:50.166Z,4.20
2022-08-26T17:46:17.400Z,4.13
2022-08-26T17:48:44.498Z,4.30
2022-08-26T17:51:14.456Z,4.32
2022-08-26T17:53:42.198Z,3.85
2022-08-26T17:56:11.951Z,4.25
2022-08-26T17:58:40.645Z,3.88
2022-08-26T18:01:15.381Z,3.90
2022-08-26T18:03:42.908Z,4.75
2022-08-26T18:06:11.854Z,4.07
2022-08-26T18:08:39.595Z,4.45
2022-08-26T18:11:16.255Z,4.57
2022-08-26T18:13:47.508Z,4.47
2022-08-26T18:18:43.184Z,4.55
2022-08-26T18:21:19.281Z,4.70
2022-08-26T18:23:47.060Z,4.68
2022-08-26T18:26:22.896Z,4.35
2022-08-26T18:28:49.950Z,4.20
2022-08-26T18:31:17.161Z,4.20
2022-08-26T18:33:44.717Z,4.25
2022-08-26T18:36:27.308Z,4.00
2022-08-26T18:38:55.488Z,4.35
2022-08-26T18:41:49.601Z,4.55
2022-08-26T18:44:18.630Z,4.55
2022-08-26T18:46:46.592Z,4.32
2022-08-26T18:49:16.142Z,4.78
2022-08-26T18:51:44.494Z,5.53
2022-08-26T18:54:12.426Z,4.53
2022-08-26T18:56:41.057Z,4.32
2022-08-26T18:59:09.109Z,4.10
2022-08-26T19:01:38.365Z,4.70
2022-08-26T19:04:07.607Z,4.53
2022-08-26T19:06:36.053Z,4.63
2022-08-26T19:09:09.260Z,4.95
2022-08-26T19:11:42.996Z,4.13
2022-08-26T19:14:13.817Z,4.38
2022-08-26T19:16:44.160Z,4.90
2022-08-26T19:19:12.468Z,5.05
2022-08-26T19:21:40.233Z,4.32
2022-08-26T19:24:15.642Z,5.10
2022-08-26T19:26:48.804Z,5.35
2022-08-26T19:31:50.889Z,4.75
2022-08-26T19:34:20.240Z,4.82
2022-08-26T19:36:48.928Z,5.28
2022-08-26T19:39:16.380Z,5.05
2022-08-26T19:41:44.460Z,4.68
2022-08-26T19:44:36.672Z,4.75
2022-08-26T19:47:05.785Z,4.37
2022-08-26T19:49:33.813Z,5.07
2022-08-26T19:52:04.415Z,4.57
2022-08-26T19:54:32.067Z,4.70
2022-08-26T19:56:59.500Z,4.63
2022-08-26T19:59:26.925Z,4.72
2022-08-26T20:02:01.294Z,4.60
2022-08-26T20:04:31.075Z,4.13
2022-08-26T20:07:00.463Z,4.78
2022-08-26T20:09:29.785Z,5.07
2022-08-26T20:11:57.434Z,5.18
2022-08-26T20:14:26.119Z,5.28
2022-08-26T20:16:53.392Z,4.75
2022-08-26T20:19:39.683Z,4.60
2022-08-26T20:22:08.140Z,5.45
2022-08-26T20:24:36.317Z,4.70
2022-08-26T20:27:07.819Z,5.57
2022-08-26T20:29:36.724Z,4.97
2022-08-26T20:32:06.218Z,4.85
2022-08-26T20:34:33.936Z,5.35
2022-08-26T20:37:01.880Z,5.88
2022-08-26T20:39:29.933Z,4.68
2022-08-26T20:41:57.868Z,5.60
2022-08-26T20:44:25.619Z,5.22
2022-08-26T20:46:53.065Z,5.18
2022-08-26T20:49:20.312Z,6.10
2022-08-26T20:51:51.579Z,5.32
2022-08-26T20:54:22.989Z,5.72
2022-08-26T20:56:52.626Z,6.00
2022-08-26T20:59:21.198Z,5.72
2022-08-26T21:01:49.167Z,4.80
2022-08-26T21:04:20.866Z,4.88
2022-08-26T21:09:22.563Z,5.38
2022-08-26T21:11:49.891Z,4.75
2022-08-26T21:14:17.681Z,4.90
2022-08-26T21:16:45.992Z,4.82
2022-08-26T21:19:15.233Z,5.28
2022-08-26T21:21:43.121Z,5.72
2022-08-26T21:24:10.388Z,5.22
2022-08-26T21:26:37.807Z,5.85
2022-08-26T21:29:06.753Z,5.38
2022-08-26T21:31:35.159Z,5.75
2022-08-26T21:34:02.420Z,5.40
2022-08-26T21:36:29.653Z,5.65
2022-08-26T21:38:58.288Z,5.30
2022-08-26T21:41:26.251Z,6.00
2022-08-26T21:43:59.024Z,5.68
2022-08-26T21:46:29.275Z,5.30
2022-08-26T21:49:01.669Z,5.25
2022-08-26T21:51:31.603Z,5.55
2022-08-26T21:53:59.968Z,5.68
2022-08-26T21:56:31.699Z,5.20
2022-08-26T22:01:28.567Z,6.30
2022-08-26T22:03:55.870Z,5.47
2022-08-26T22:06:27.255Z,5.88
2022-08-26T22:08:55.435Z,5.65
2022-08-26T22:11:22.535Z,6.03
2022-08-26T22:13:50.579Z,5.90
2022-08-26T22:16:19.022Z,5.85
2022-08-26T22:18:46.352Z,6.32
2022-08-26T22:21:17.350Z,6.32
2022-08-26T22:23:45.069Z,6.10
2022-08-26T22:26:15.239Z,5.60
2022-08-26T22:28:52.637Z,5.63
2022-08-26T22:31:28.060Z,6.22
2022-08-26T22:34:06.935Z,5.60
2022-08-26T22:36:34.153Z,5.78
2022-08-26T22:39:01.563Z,5.95
2022-08-26T22:41:28.794Z,6.25
2022-08-26T22:44:02.733Z,6.10
2022-08-26T22:46:29.819Z,6.18
2022-08-26T22:48:56.960Z,6.05
2022-08-26T22:51:23.961Z,6.13
2022-08-26T22:53:51.085Z,6.25
2022-08-26T22:56:19.173Z,6.07
2022-08-26T22:58:46.222Z,6.72
2022-08-26T23:01:13.877Z,6.38
2022-08-26T23:03:41.471Z,6.40
2022-08-26T23:06:12.592Z,6.05
2022-08-26T23:08:41.944Z,6.32
2022-08-26T23:11:11.156Z,6.70
2022-08-26T23:13:38.930Z,6.13
2022-08-26T23:16:09.543Z,6.80
2022-08-26T23:18:37.126Z,5.97
2022-08-26T23:21:04.663Z,6.20
2022-08-26T23:23:31.878Z,6.40
2022-08-26T23:25:58.970Z,6.53
2022-08-26T23:28:26.531Z,6.38
2022-08-26T23:30:54.019Z,6.25
2022-08-26T23:33:21.605Z,6.10
2022-08-26T23:35:48.609Z,7.25
2022-08-26T23:38:16.626Z,6.10
2022-08-26T23:40:43.709Z,6.28
2022-08-26T23:43:16.421Z,6.85
2022-08-26T23:45:43.910Z,7.00
2022-08-26T23:48:11.113Z,6.45
2022-08-26T23:50:56.842Z,5.65
2022-08-26T23:53:24.149Z,6.28
2022-08-26T23:55:52.624Z,6.75
2022-08-26T23:58:21.313Z,6.13
